Time;durP1;ratioP1;P1;durP2;ratioP2;P2;SDS_P1;SDS_P2;PMS_P1;PMS_P2;Temp;Humidity;BMP_temperature;BMP_pressure;BME280_temperature;BME280_humidity;BME280_pressure;Samples;Min_cycle;Max_cycle;Signal;HPM_P1;HPM_P2
2022/08/15 00:02:25;;;;;;;12.10;10.63;;;21.70;99.90;;;;;;5122007;27;20904;-69
2022/08/15 00:04:50;;;;;;;11.80;10.52;;;21.70;99.90;;;;;;5119734;27;20051;-68
2022/08/15 00:07:16;;;;;;;13.30;10.55;;;21.70;99.90;;;;;;5103130;27;20135;-69
2022/08/15 00:09:42;;;;;;;13.27;10.27;;;21.60;99.90;;;;;;5117399;27;20058;-69
2022/08/15 00:12:08;;;;;;;12.77;10.65;;;21.50;99.90;;;;;;5118771;27;20047;-68
2022/08/15 00:14:35;;;;;;;13.90;10.65;;;21.50;99.90;;;;;;5122881;27;20459;-68
2022/08/15 00:17:07;;;;;;;15.30;10.75;;;21.50;99.90;;;;;;5105815;27;20127;-69
2022/08/15 00:19:33;;;;;;;13.60;11.30;;;21.50;99.90;;;;;;5120386;27;20040;-68
2022/08/15 00:22:04;;;;;;;11.85;10.48;;;21.30;99.90;;;;;;5103323;27;20057;-71
2022/08/15 00:24:34;;;;;;;12.93;10.02;;;21.30;99.90;;;;;;5119091;27;20040;-68
2022/08/15 00:27:02;;;;;;;16.40;11.20;;;21.30;99.90;;;;;;5102746;27;20035;-70
2022/08/15 00:29:31;;;;;;;13.07;10.93;;;21.20;99.90;;;;;;5120823;27;20039;-68
2022/08/15 00:31:58;;;;;;;14.18;10.57;;;21.10;99.90;;;;;;5120113;27;20043;-68
2022/08/15 00:34:24;;;;;;;12.75;10.75;;;21.10;99.90;;;;;;5096704;27;20050;-68
2022/08/15 00:36:50;;;;;;;12.85;10.55;;;21.10;99.90;;;;;;5102186;27;20635;-68
2022/08/15 00:39:19;;;;;;;15.40;11.10;;;21.10;99.90;;;;;;5118954;27;20043;-67
2022/08/15 00:41:48;;;;;;;14.35;10.95;;;21.10;99.90;;;;;;5118277;27;20062;-68
2022/08/15 00:44:40;;;;;;;13.65;10.95;;;21.10;99.90;;;;;;5119871;27;20050;-68
2022/08/15 00:47:14;;;;;;;13.18;10.95;;;21.00;99.90;;;;;;5103118;27;20039;-69
2022/08/15 00:49:41;;;;;;;12.98;10.55;;;21.00;99.90;;;;;;5121035;27;20047;-68
2022/08/15 00:52:12;;;;;;;12.10;10.90;;;21.00;99.90;;;;;;5120156;27;20043;-69
2022/08/15 00:54:43;;;;;;;16.05;11.25;;;21.00;99.90;;;;;;5117937;27;20517;-71
2022/08/15 00:57:17;;;;;;;13.65;11.52;;;21.00;99.90;;;;;;5105953;27;20062;-70
2022/08/15 00:59:46;;;;;;;14.02;10.95;;;21.00;99.90;;;;;;5117837;27;20618;-68
2022/08/15 01:02:16;;;;;;;14.25;12.02;;;21.00;99.90;;;;;;5119553;27;20047;-68
2022/08/15 01:04:41;;;;;;;15.20;11.50;;;20.90;99.90;;;;;;5117434;27;20526;-68
2022/08/15 01:07:09;;;;;;;12.95;11.52;;;20.90;99.90;;;;;;5100089;27;20093;-68
2022/08/15 01:09:36;;;;;;;12.75;11.02;;;20.80;99.90;;;;;;5116431;27;20054;-68
2022/08/15 01:12:24;;;;;;;13.85;10.70;;;20.80;99.90;;;;;;5117594;27;20125;-69
2022/08/15 01:14:55;;;;;;;12.82;10.85;;;20.80;99.90;;;;;;5117128;27;20039;-68
2022/08/15 01:17:21;;;;;;;;;;;20.70;99.90;;;;;;5106668;27;20043;-68
2022/08/15 01:19:56;;;;;;;12.52;11.23;;;20.70;99.90;;;;;;5115136;27;20022;-68
2022/08/15 01:22:41;;;;;;;13.38;11.40;;;20.60;99.90;;;;;;5120566;27;20055;-69
2022/08/15 01:25:09;;;;;;;16.52;11.55;;;20.60;99.90;;;;;;5116916;27;20050;-69
2022/08/15 01:28:16;;;;;;;14.02;11.77;;;20.50;99.90;;;;;;5106314;27;20047;-67
2022/08/15 01:30:51;;;;;;;12.77;11.30;;;20.50;99.90;;;;;;5040686;28;20055;-68
2022/08/15 01:33:19;;;;;;;12.57;11.27;;;20.40;99.90;;;;;;5107164;27;20076;-69
2022/08/15 01:35:46;;;;;;;14.63;10.93;;;20.30;99.90;;;;;;5117228;27;20119;-68
2022/08/15 01:38:35;;;;;;;14.50;11.25;;;20.40;99.90;;;;;;5098882;27;20054;-69
2022/08/15 01:41:28;;;;;;;12.50;10.75;;;20.40;99.90;;;;;;5119615;27;20490;-68
2022/08/15 01:44:20;;;;;;;16.48;12.10;;;20.40;99.90;;;;;;5113320;27;20059;-67
2022/08/15 01:46:57;;;;;;;13.30;11.82;;;20.40;99.90;;;;;;5102125;27;20073;-69
2022/08/15 01:49:35;;;;;;;16.15;12.20;;;20.40;99.90;;;;;;5116132;27;20451;-69
2022/08/15 01:52:04;;;;;;;14.88;12.82;;;20.40;99.90;;;;;;5115260;27;20078;-69
2022/08/15 01:54:36;;;;;;;14.23;11.73;;;20.40;99.90;;;;;;5116723;27;20126;-67
2022/08/15 01:57:04;;;;;;;17.23;12.40;;;20.40;99.90;;;;;;5099965;27;20528;-68
2022/08/15 01:59:31;;;;;;;15.38;12.60;;;20.40;99.90;;;;;;5116528;27;20043;-68
2022/08/15 02:02:03;;;;;;;14.88;11.77;;;20.40;99.90;;;;;;5119586;27;20092;-68
2022/08/15 02:04:38;;;;;;;13.23;11.68;;;20.50;99.90;;;;;;5098151;28;20778;-68
2022/08/15 02:07:17;;;;;;;13.93;11.23;;;20.40;99.90;;;;;;5079901;28;20052;-69
2022/08/15 02:09:47;;;;;;;14.20;11.77;;;20.40;99.90;;;;;;5099023;28;20400;-69
2022/08/15 02:12:16;;;;;;;14.38;11.07;;;20.40;99.90;;;;;;5097629;28;20047;-67
2022/08/15 02:14:41;;;;;;;14.45;11.38;;;20.40;99.90;;;;;;5095254;28;20058;-69
2022/08/15 02:17:09;;;;;;;12.98;11.68;;;20.40;99.90;;;;;;5087022;28;20714;-68
2022/08/15 02:19:40;;;;;;;14.48;11.43;;;20.40;99.90;;;;;;5098742;28;21362;-68
2022/08/15 02:22:08;;;;;;;12.73;11.50;;;20.30;99.90;;;;;;5098096;27;20040;-68
2022/08/15 02:24:34;;;;;;;13.43;12.02;;;20.40;99.90;;;;;;5097271;28;20040;-69
2022/08/15 02:27:00;;;;;;;13.55;12.15;;;20.40;99.90;;;;;;5078103;28;20126;-68
2022/08/15 02:29:28;;;;;;;13.27;11.88;;;20.40;99.90;;;;;;5091898;28;20580;-68
2022/08/15 02:31:59;;;;;;;14.32;11.98;;;20.40;99.90;;;;;;5096482;28;20084;-68
2022/08/15 02:34:25;;;;;;;14.13;12.48;;;20.40;99.90;;;;;;5096120;28;20120;-68
2022/08/15 02:36:52;;;;;;;14.32;12.88;;;20.40;99.90;;;;;;5080434;28;20379;-68
2022/08/15 02:39:18;;;;;;;15.82;12.02;;;20.40;99.90;;;;;;5094512;28;20124;-68
2022/08/15 02:41:51;;;;;;;16.45;12.52;;;20.40;99.90;;;;;;5099251;28;20126;-67
2022/08/15 02:44:20;;;;;;;13.90;12.60;;;20.30;99.90;;;;;;5092879;28;20117;-68
2022/08/15 02:46:50;;;;;;;14.68;12.57;;;20.30;99.90;;;;;;5082218;28;20062;-69
2022/08/15 02:49:18;;;;;;;14.23;12.73;;;20.30;99.90;;;;;;5100352;28;20035;-69
2022/08/15 02:51:44;;;;;;;15.23;13.73;;;20.20;99.90;;;;;;5097944;28;20051;-68
2022/08/15 02:54:11;;;;;;;14.30;12.80;;;20.20;99.90;;;;;;5094702;28;20058;-68
2022/08/15 02:56:37;;;;;;;15.45;13.30;;;20.30;99.90;;;;;;5083219;28;20054;-68
2022/08/15 02:59:07;;;;;;;15.45;13.82;;;20.30;99.90;;;;;;5092464;28;20036;-69
2022/08/15 03:01:37;;;;;;;14.73;13.33;;;20.30;99.90;;;;;;5096123;28;20051;-69
2022/08/15 03:04:05;;;;;;;16.80;12.63;;;20.30;99.90;;;;;;5089236;28;20047;-68
2022/08/15 03:06:32;;;;;;;16.00;13.48;;;20.30;99.90;;;;;;5086268;28;20422;-68
2022/08/15 03:09:00;;;;;;;15.55;13.77;;;20.20;99.90;;;;;;5092944;28;20052;-70
2022/08/15 03:11:27;;;;;;;17.50;13.98;;;20.20;99.90;;;;;;5094788;28;20039;-68
2022/08/15 03:13:54;;;;;;;14.73;13.15;;;20.30;99.90;;;;;;5090976;28;20036;-68
2022/08/15 03:16:20;;;;;;;13.98;12.57;;;20.30;99.90;;;;;;5086107;28;20040;-68
2022/08/15 03:18:46;;;;;;;13.23;11.85;;;20.30;99.90;;;;;;5089341;28;20047;-68
2022/08/15 03:21:17;;;;;;;13.15;11.70;;;20.30;99.90;;;;;;5097542;28;20562;-68
2022/08/15 03:23:49;;;;;;;;;;;20.30;99.90;;;;;;5093608;28;20054;-69
2022/08/15 03:26:20;;;;;;;16.92;12.10;;;20.30;99.90;;;;;;5083184;28;19932;-68
2022/08/15 03:28:46;;;;;;;13.70;11.80;;;20.30;99.90;;;;;;5088749;28;20044;-68
2022/08/15 03:31:13;;;;;;;14.35;11.68;;;20.30;99.90;;;;;;5100511;28;20119;-68
2022/08/15 03:33:41;;;;;;;13.43;12.02;;;20.30;99.90;;;;;;5102113;28;20074;-68
2022/08/15 03:36:08;;;;;;;16.20;13.30;;;20.30;99.90;;;;;;5099744;28;20139;-74
2022/08/15 03:38:34;;;;;;;14.32;12.70;;;20.30;99.90;;;;;;5092029;28;20456;-68
2022/08/15 03:41:00;;;;;;;13.93;12.60;;;20.40;99.90;;;;;;5099338;28;20097;-68
2022/08/15 03:43:30;;;;;;;16.27;14.43;;;20.40;99.90;;;;;;5097572;28;20139;-68
2022/08/15 03:46:00;;;;;;;15.07;13.32;;;20.40;99.90;;;;;;5094786;28;20051;-68
2022/08/15 03:48:29;;;;;;;14.63;13.00;;;20.40;99.90;;;;;;5082403;28;20495;-69
2022/08/15 03:50:57;;;;;;;16.30;13.10;;;20.40;99.90;;;;;;5097443;28;20044;-70
2022/08/15 03:53:23;;;;;;;18.70;14.77;;;20.40;99.90;;;;;;5079822;28;20035;-69
2022/08/15 03:55:49;;;;;;;13.52;12.20;;;20.40;99.90;;;;;;5095769;28;20507;-68
2022/08/15 03:58:15;;;;;;;14.90;12.60;;;20.40;99.90;;;;;;5084334;27;20061;-69
2022/08/15 04:00:47;;;;;;;16.10;12.95;;;20.40;99.90;;;;;;5098541;28;20091;-68
2022/08/15 04:03:17;;;;;;;14.48;12.75;;;20.40;99.90;;;;;;5097470;28;20062;-68
2022/08/15 04:05:49;;;;;;;15.57;12.25;;;20.40;99.90;;;;;;5097951;28;20131;-69
2022/08/15 04:08:17;;;;;;;14.30;12.88;;;20.40;99.90;;;;;;5085659;28;20114;-70
2022/08/15 04:10:45;;;;;;;15.38;12.38;;;20.30;99.90;;;;;;5097132;28;20047;-69
2022/08/15 04:13:11;;;;;;;15.40;13.75;;;20.30;99.90;;;;;;5097051;28;20043;-69
2022/08/15 04:15:38;;;;;;;14.00;12.57;;;20.20;99.90;;;;;;5101353;28;20130;-68
2022/08/15 04:18:04;;;;;;;16.02;13.63;;;20.20;99.90;;;;;;5086022;28;20046;-69
2022/08/15 04:20:30;;;;;;;16.10;14.30;;;20.20;99.90;;;;;;5099977;27;20076;-68
2022/08/15 04:22:56;;;;;;;15.88;13.80;;;20.10;99.90;;;;;;5095006;28;20075;-69
2022/08/15 04:25:27;;;;;;;16.40;13.82;;;20.10;99.90;;;;;;5095287;28;20486;-68
2022/08/15 04:27:56;;;;;;;15.00;13.50;;;20.10;99.90;;;;;;5085940;28;20447;-68
2022/08/15 04:30:25;;;;;;;16.55;13.02;;;20.00;99.90;;;;;;5100336;28;20126;-69
2022/08/15 04:32:53;;;;;;;21.35;14.10;;;20.00;99.90;;;;;;5095190;28;20043;-71
2022/08/15 04:35:19;;;;;;;29.00;15.32;;;20.00;99.90;;;;;;5099828;28;20375;-69
2022/08/15 04:37:45;;;;;;;32.85;15.30;;;20.00;99.90;;;;;;5082247;28;21002;-69
2022/08/15 04:40:14;;;;;;;32.40;16.48;;;20.00;99.90;;;;;;5100225;28;20039;-68
2022/08/15 04:42:51;;;;;;;32.25;14.27;;;20.00;99.90;;;;;;5095311;28;21322;-69
2022/08/15 04:45:17;;;;;;;23.55;13.90;;;20.00;99.90;;;;;;5097756;28;20040;-68
2022/08/15 04:47:42;;;;;;;21.15;14.20;;;20.00;99.90;;;;;;5079549;28;20090;-69
2022/08/15 04:50:09;;;;;;;489.38;60.53;;;20.10;99.90;;;;;;5099269;28;20056;-69
2022/08/15 04:52:43;;;;;;;172.63;31.00;;;20.10;99.90;;;;;;5098937;28;20048;-69
2022/08/15 04:55:09;;;;;;;30.48;16.02;;;20.00;99.90;;;;;;5098315;28;20044;-68
2022/08/15 04:57:35;;;;;;;33.33;17.35;;;20.00;99.90;;;;;;5084504;28;20667;-69
2022/08/15 05:00:01;;;;;;;54.10;19.00;;;20.00;99.90;;;;;;5097931;28;20115;-69
2022/08/15 05:02:26;;;;;;;36.90;17.27;;;20.10;99.90;;;;;;5094828;28;20087;-71
2022/08/15 05:04:52;;;;;;;24.08;16.65;;;20.10;99.90;;;;;;5096644;28;20054;-71
2022/08/15 05:07:18;;;;;;;28.77;17.58;;;20.10;99.90;;;;;;5083401;28;20036;-71
2022/08/15 05:09:44;;;;;;;23.63;16.95;;;20.10;99.90;;;;;;5099546;28;20056;-71
2022/08/15 05:12:10;;;;;;;18.23;15.57;;;20.10;99.90;;;;;;5097418;27;20050;-71
2022/08/15 05:14:36;;;;;;;18.77;15.57;;;20.10;99.90;;;;;;5099598;28;20118;-70
2022/08/15 05:17:02;;;;;;;18.13;16.33;;;20.10;99.90;;;;;;5079868;28;20040;-71
2022/08/15 05:19:28;;;;;;;18.65;16.45;;;20.10;99.90;;;;;;5096703;28;20054;-71
2022/08/15 05:21:53;;;;;;;20.60;16.27;;;20.10;99.90;;;;;;5096661;28;20036;-71
2022/08/15 05:24:19;;;;;;;19.88;17.38;;;20.10;99.90;;;;;;5092995;28;20508;-70
2022/08/15 05:26:45;;;;;;;18.20;16.20;;;20.20;99.90;;;;;;5083280;28;20054;-72
2022/08/15 05:29:11;;;;;;;19.13;16.52;;;20.20;99.90;;;;;;5095332;28;20975;-73
2022/08/15 05:31:37;;;;;;;21.60;17.27;;;20.20;99.90;;;;;;5095330;28;20048;-71
2022/08/15 05:34:03;;;;;;;18.92;17.02;;;20.30;99.90;;;;;;5097999;27;20046;-70
2022/08/15 05:36:32;;;;;;;20.70;16.48;;;20.40;99.90;;;;;;5087141;28;20535;-70
2022/08/15 05:39:01;;;;;;;19.33;17.05;;;20.60;99.90;;;;;;5097930;28;20054;-71
2022/08/15 05:41:32;;;;;;;23.00;17.67;;;20.60;99.90;;;;;;5092653;28;20050;-72
2022/08/15 05:44:11;;;;;;;31.08;17.95;;;20.60;99.90;;;;;;5093999;28;20169;-70
2022/08/15 05:46:46;;;;;;;49.47;20.38;;;20.70;99.90;;;;;;5081869;28;20115;-72
2022/08/15 05:49:27;;;;;;;34.08;19.02;;;20.70;99.90;;;;;;5096502;28;20586;-72
2022/08/15 05:52:22;;;;;;;27.58;18.55;;;20.70;99.90;;;;;;5096471;28;20113;-70
2022/08/15 05:55:06;;;;;;;30.88;17.65;;;20.80;99.90;;;;;;5116276;27;20045;-70
2022/08/15 05:58:00;;;;;;;37.25;18.23;;;20.80;99.90;;;;;;5102674;27;20043;-70
2022/08/15 06:00:26;;;;;;;24.13;17.45;;;20.80;99.90;;;;;;5115901;27;20039;-71
2022/08/15 06:03:00;;;;;;;19.33;17.25;;;20.90;99.90;;;;;;5114582;27;20126;-71
2022/08/15 06:05:32;;;;;;;22.77;17.25;;;20.90;99.90;;;;;;5119219;27;20545;-71
2022/08/15 06:08:01;;;;;;;20.20;17.98;;;20.90;99.90;;;;;;5088870;27;20079;-72
2022/08/15 06:10:36;;;;;;;21.90;17.33;;;20.90;99.90;;;;;;5096750;28;20071;-70
2022/08/15 06:13:39;;;;;;;23.65;17.85;;;21.10;99.90;;;;;;5099311;28;20040;-70
2022/08/15 06:16:16;;;;;;;23.42;17.30;;;21.10;99.90;;;;;;5062701;28;20055;-71
2022/08/15 06:18:43;;;;;;;22.20;17.95;;;21.10;99.90;;;;;;5091869;28;21620;-71
2022/08/15 06:21:37;;;;;;;20.55;17.63;;;21.20;99.90;;;;;;5094366;28;20097;-71
2022/08/15 06:24:16;;;;;;;20.33;17.30;;;21.30;99.90;;;;;;5097897;28;20043;-71
2022/08/15 06:26:42;;;;;;;20.02;17.42;;;21.30;99.90;;;;;;5081280;28;20491;-71
2022/08/15 06:29:22;;;;;;;20.08;18.00;;;21.30;99.90;;;;;;5094049;28;20050;-72
2022/08/15 06:32:01;;;;;;;20.55;16.98;;;21.30;99.90;;;;;;5092358;28;20072;-72
2022/08/15 06:34:27;;;;;;;28.55;17.88;;;21.40;99.90;;;;;;5094950;28;20414;-72
2022/08/15 06:37:06;;;;;;;19.75;17.63;;;21.50;99.90;;;;;;5082300;28;20062;-72
2022/08/15 06:39:47;;;;;;;19.65;16.80;;;21.60;99.90;;;;;;5093635;28;20040;-71
2022/08/15 06:42:16;;;;;;;;;;;21.70;99.90;;;;;;5096396;28;20151;-71
2022/08/15 06:44:42;;;;;;;20.42;17.95;;;21.80;99.90;;;;;;5097779;28;19927;-74
2022/08/15 06:47:09;;;;;;;34.90;18.33;;;21.80;99.90;;;;;;5082429;28;20498;-70
2022/08/15 06:49:45;;;;;;;52.28;19.45;;;21.80;99.90;;;;;;5096092;28;20043;-71
2022/08/15 06:52:15;;;;;;;23.38;16.88;;;22.00;99.90;;;;;;5096895;28;20085;-72
2022/08/15 06:54:42;;;;;;;21.10;16.73;;;22.20;99.90;;;;;;5096115;28;20047;-71
2022/08/15 06:57:31;;;;;;;18.67;16.73;;;22.40;99.90;;;;;;5081176;27;20297;-71
2022/08/15 07:00:05;;;;;;;21.80;17.05;;;22.50;99.90;;;;;;5093435;28;20044;-71
2022/08/15 07:02:44;;;;;;;18.45;16.55;;;22.50;99.90;;;;;;5094039;28;20040;-71
2022/08/15 07:05:22;;;;;;;21.25;16.50;;;22.50;99.90;;;;;;5092934;28;20515;-72
2022/08/15 07:08:14;;;;;;;20.95;16.25;;;22.50;99.90;;;;;;5076755;28;20498;-72
2022/08/15 07:10:54;;;;;;;18.85;15.75;;;22.80;99.90;;;;;;5092814;28;20052;-71
2022/08/15 07:13:28;;;;;;;18.92;14.00;;;22.90;99.90;;;;;;5095096;28;20154;-71
2022/08/15 07:16:00;;;;;;;17.00;13.55;;;23.00;99.90;;;;;;5094741;28;20054;-71
2022/08/15 07:18:34;;;;;;;15.25;13.63;;;23.00;99.90;;;;;;5081781;27;20082;-72
2022/08/15 07:21:15;;;;;;;16.98;12.32;;;23.10;99.90;;;;;;5098438;28;20058;-71
2022/08/15 07:24:03;;;;;;;13.82;12.07;;;23.20;99.90;;;;;;5097344;27;20100;-69
2022/08/15 07:26:31;;;;;;;14.57;11.52;;;23.20;99.90;;;;;;5083918;28;20042;-71
2022/08/15 07:28:59;;;;;;;17.13;13.20;;;23.20;99.90;;;;;;5097369;28;20071;-71
2022/08/15 07:31:33;;;;;;;15.18;11.90;;;23.40;99.90;;;;;;5092918;28;20057;-72
2022/08/15 07:34:22;;;;;;;12.57;11.35;;;23.40;99.90;;;;;;5093899;28;20048;-75
2022/08/15 07:37:00;;;;;;;13.50;11.48;;;23.40;99.90;;;;;;5082324;28;20052;-71
2022/08/15 07:39:34;;;;;;;12.35;11.07;;;23.50;99.90;;;;;;5090958;28;20566;-71
2022/08/15 07:42:15;;;;;;;13.63;11.02;;;23.50;99.90;;;;;;5089901;28;20052;-71
2022/08/15 07:44:50;;;;;;;13.90;11.70;;;23.50;99.90;;;;;;5086571;28;20048;-72
2022/08/15 07:47:32;;;;;;;17.30;12.15;;;23.50;99.90;;;;;;5076884;28;20097;-73
2022/08/15 07:50:06;;;;;;;16.13;12.18;;;23.80;99.90;;;;;;5120228;28;20043;-73
2022/08/15 07:52:32;;;;;;;15.80;14.20;;;24.00;99.90;;;;;;5112075;27;20066;-73
2022/08/15 07:55:15;;;;;;;19.48;17.00;;;24.00;99.90;;;;;;5115584;28;20493;-72
2022/08/15 07:57:41;;;;;;;19.67;17.67;;;23.80;99.90;;;;;;5099506;28;20121;-72
2022/08/15 08:00:13;;;;;;;18.30;16.48;;;23.50;99.90;;;;;;5114195;28;20470;-73
2022/08/15 08:03:10;;;;;;;19.98;17.02;;;23.50;99.90;;;;;;5102220;27;20108;-72
2022/08/15 08:06:09;;;;;;;21.38;16.33;;;23.50;99.90;;;;;;5100092;28;20489;-72
2022/08/15 08:09:06;;;;;;;19.75;16.23;;;23.50;99.90;;;;;;5097872;28;20036;-71
2022/08/15 08:11:46;;;;;;;18.63;15.32;;;23.50;99.90;;;;;;5111243;28;20031;-71
2022/08/15 08:14:22;;;;;;;17.77;15.75;;;23.40;99.90;;;;;;5115200;27;20097;-72
2022/08/15 08:17:05;;;;;;;17.63;15.77;;;23.60;99.90;;;;;;5100611;28;20053;-72
2022/08/15 08:19:52;;;;;;;16.20;14.48;;;23.60;99.90;;;;;;5116400;27;20100;-72
2022/08/15 08:22:26;;;;;;;16.20;14.50;;;23.70;99.90;;;;;;5119545;27;20050;-74
2022/08/15 08:25:06;;;;;;;19.58;14.07;;;23.80;99.90;;;;;;5116032;27;20049;-72
2022/08/15 08:28:02;;;;;;;16.65;13.18;;;23.90;99.90;;;;;;5100882;27;20044;-73
2022/08/15 08:30:49;;;;;;;15.95;14.23;;;23.80;99.90;;;;;;5121763;27;20066;-72
2022/08/15 08:33:28;;;;;;;18.40;14.15;;;24.10;99.90;;;;;;5100602;27;20138;-73
2022/08/15 08:36:09;;;;;;;17.90;13.85;;;24.10;99.90;;;;;;5122627;27;20047;-74
2022/08/15 08:38:44;;;;;;;16.95;13.95;;;24.20;99.90;;;;;;5106906;27;20073;-73
2022/08/15 08:41:25;;;;;;;13.52;12.13;;;24.40;99.90;;;;;;5120544;27;20496;-73
2022/08/15 08:44:07;;;;;;;13.32;10.95;;;24.40;99.90;;;;;;5117637;27;20039;-72
2022/08/15 08:46:51;;;;;;;12.50;11.20;;;24.40;99.90;;;;;;5105318;27;20054;-71
2022/08/15 08:49:34;;;;;;;12.73;9.40;;;24.50;99.90;;;;;;5120439;27;20051;-73
2022/08/15 08:52:27;;;;;;;10.38;9.27;;;24.50;99.90;;;;;;5123213;27;20114;-72
2022/08/15 08:55:16;;;;;;;11.13;9.88;;;24.60;99.90;;;;;;5122268;27;20744;-72
2022/08/15 08:57:47;;;;;;;15.20;9.70;;;24.60;99.90;;;;;;5101125;27;20058;-72
2022/08/15 09:00:17;;;;;;;10.38;8.60;;;24.60;99.90;;;;;;5118270;27;20043;-72
2022/08/15 09:03:02;;;;;;;11.47;8.77;;;24.70;99.90;;;;;;5100489;27;20139;-74
2022/08/15 09:05:49;;;;;;;10.90;8.77;;;24.70;99.90;;;;;;5119236;27;20047;-71
2022/08/15 09:08:35;;;;;;;11.93;8.80;;;24.80;99.90;;;;;;5103032;27;20036;-72
2022/08/15 09:11:38;;;;;;;10.95;9.25;;;24.90;99.90;;;;;;5116245;27;20040;-71
2022/08/15 09:14:17;;;;;;;9.70;8.70;;;24.90;99.90;;;;;;5118435;27;20044;-72
2022/08/15 09:16:45;;;;;;;13.13;8.50;;;25.00;99.90;;;;;;5105759;27;20051;-71
2022/08/15 09:19:24;;;;;;;11.48;8.50;;;25.00;99.90;;;;;;5118981;27;20414;-73
2022/08/15 09:21:51;;;;;;;8.25;7.15;;;25.00;99.90;;;;;;5116748;27;20054;-73
2022/08/15 09:24:19;;;;;;;8.73;7.30;;;25.20;99.90;;;;;;5121111;27;20051;-73
2022/08/15 09:27:08;;;;;;;10.43;8.07;;;25.20;99.90;;;;;;5105808;27;20039;-73
2022/08/15 09:29:37;;;;;;;10.20;7.80;;;25.40;99.90;;;;;;5114869;27;20130;-73
2022/08/15 09:32:13;;;;;;;8.77;6.82;;;25.70;99.90;;;;;;5118570;27;20035;-72
2022/08/15 09:34:54;;;;;;;8.38;6.90;;;25.80;99.90;;;;;;5116250;27;20221;-72
2022/08/15 09:37:38;;;;;;;9.38;6.63;;;25.90;99.90;;;;;;5097768;27;20055;-72
2022/08/15 09:40:17;;;;;;;7.15;5.65;;;25.90;99.90;;;;;;5115795;27;20044;-73
2022/08/15 09:43:06;;;;;;;8.55;5.82;;;25.90;99.90;;;;;;5114961;27;20062;-73
2022/08/15 09:45:38;;;;;;;11.57;6.40;;;25.90;99.90;;;;;;5114930;27;20043;-73
2022/08/15 09:48:25;;;;;;;8.57;6.63;;;25.90;99.90;;;;;;5103387;27;20039;-73
2022/08/15 09:51:11;;;;;;;9.82;6.60;;;25.90;99.90;;;;;;5116707;27;20486;-73
2022/08/15 09:53:42;;;;;;;9.55;6.60;;;26.00;99.90;;;;;;5115265;27;20542;-73
2022/08/15 09:56:16;;;;;;;9.30;6.65;;;26.00;99.90;;;;;;5114427;27;20047;-76
2022/08/15 09:59:05;;;;;;;9.02;6.90;;;26.00;99.90;;;;;;5108859;27;20044;-73
2022/08/15 10:01:40;;;;;;;8.38;6.65;;;26.20;99.90;;;;;;5113088;27;20466;-74
2022/08/15 10:04:12;;;;;;;7.60;6.70;;;26.40;99.90;;;;;;5117625;27;20406;-74
2022/08/15 10:07:04;;;;;;;7.03;6.07;;;26.30;99.90;;;;;;5103564;27;20063;-72
2022/08/15 10:09:32;;;;;;;7.75;6.78;;;26.40;99.90;;;;;;5116814;27;20039;-72
2022/08/15 10:12:21;;;;;;;10.95;6.25;;;26.40;99.90;;;;;;5116248;27;20118;-72
2022/08/15 10:14:52;;;;;;;9.13;6.72;;;26.40;99.90;;;;;;5115107;27;20051;-71
2022/08/15 10:17:34;;;;;;;6.72;6.05;;;26.40;99.90;;;;;;5103539;27;20038;-72
2022/08/15 10:20:15;;;;;;;9.75;6.20;;;26.30;99.90;;;;;;5116049;27;20641;-72
2022/08/15 10:22:53;;;;;;;7.72;5.63;;;26.30;99.90;;;;;;5112675;27;20051;-71
2022/08/15 10:25:24;;;;;;;9.32;7.00;;;26.30;99.90;;;;;;5121324;27;20158;-71
2022/08/15 10:28:06;;;;;;;9.73;7.82;;;26.50;99.90;;;;;;5101168;27;20062;-72
2022/08/15 10:30:36;;;;;;;11.27;7.95;;;26.60;99.90;;;;;;5114456;27;20050;-72
2022/08/15 10:33:34;;;;;;;9.80;7.72;;;26.40;99.90;;;;;;5109999;27;20039;-73
2022/08/15 10:36:30;;;;;;;10.55;6.95;;;26.50;99.90;;;;;;5094462;28;20135;-73
2022/08/15 10:39:16;;;;;;;12.77;7.43;;;26.80;99.90;;;;;;5093278;28;20100;-71
2022/08/15 10:42:10;;;;;;;11.80;8.35;;;26.80;99.90;;;;;;5096962;28;20214;-72
2022/08/15 10:45:15;;;;;;;10.60;7.97;;;26.60;99.90;;;;;;5095750;28;20040;-71
2022/08/15 10:48:06;;;;;;;12.73;8.10;;;26.70;99.90;;;;;;5075133;28;20098;-71
2022/08/15 10:50:44;;;;;;;11.68;9.20;;;26.90;99.90;;;;;;5096735;28;20098;-72
2022/08/15 10:53:32;;;;;;;9.45;7.65;;;27.10;99.90;;;;;;5095421;28;20155;-71
2022/08/15 10:56:30;;;;;;;12.65;8.82;;;27.40;99.90;;;;;;5095180;28;20193;-73
2022/08/15 10:59:09;;;;;;;14.23;7.97;;;27.40;99.90;;;;;;5083206;28;20044;-73
2022/08/15 11:01:38;;;;;;;9.05;8.23;;;27.30;99.90;;;;;;5097185;28;20042;-71
2022/08/15 11:04:09;;;;;;;13.07;8.52;;;27.30;99.90;;;;;;5092126;28;20048;-70
2022/08/15 11:06:42;;;;;;;16.95;9.88;;;27.20;99.90;;;;;;5083254;28;20039;-71
2022/08/15 11:09:18;;;;;;;11.40;9.20;;;27.00;99.90;;;;;;5093515;28;20044;-71
2022/08/15 11:11:55;;;;;;;11.95;10.70;;;26.90;99.90;;;;;;5099056;28;20060;-71
2022/08/15 11:14:34;;;;;;;15.68;11.52;;;26.90;99.90;;;;;;5093455;28;20044;-73
2022/08/15 11:17:01;;;;;;;12.07;9.52;;;26.80;99.90;;;;;;5082987;28;20040;-72
2022/08/15 11:19:33;;;;;;;13.05;9.38;;;26.90;99.90;;;;;;5090982;28;20036;-72
2022/08/15 11:22:04;;;;;;;12.57;9.43;;;27.10;99.90;;;;;;5095233;28;20047;-73
2022/08/15 11:24:39;;;;;;;11.75;10.48;;;27.20;99.90;;;;;;5095343;28;20819;-71
2022/08/15 11:27:10;;;;;;;12.15;10.85;;;26.90;99.90;;;;;;5073071;28;20055;-70
2022/08/15 11:29:36;;;;;;;15.10;11.77;;;26.70;99.90;;;;;;5092735;28;21010;-70
2022/08/15 11:32:02;;;;;;;14.10;10.75;;;26.60;99.90;;;;;;5094990;28;20070;-71
2022/08/15 11:34:33;;;;;;;13.55;12.15;;;26.50;99.90;;;;;;5091828;28;20136;-71
2022/08/15 11:37:10;;;;;;;14.95;12.02;;;26.30;99.90;;;;;;5052147;28;20055;-74
2022/08/15 11:39:42;;;;;;;14.18;12.10;;;26.30;99.90;;;;;;5047115;28;20051;-71
2022/08/15 11:42:13;;;;;;;15.32;11.88;;;26.20;99.90;;;;;;5082731;28;20419;-73
2022/08/15 11:44:56;;;;;;;12.98;11.68;;;26.10;99.90;;;;;;5066372;28;20055;-71
2022/08/15 11:47:23;;;;;;;14.85;11.55;;;26.00;99.90;;;;;;5049250;28;20055;-72
2022/08/15 11:50:00;;;;;;;15.65;11.15;;;25.90;99.90;;;;;;5072152;28;21665;-72
2022/08/15 11:52:32;;;;;;;12.25;10.90;;;25.80;99.90;;;;;;5065054;27;20047;-75
2022/08/15 11:55:27;;;;;;;13.48;11.52;;;25.70;99.90;;;;;;5070078;28;20035;-72
2022/08/15 11:58:22;;;;;;;12.10;10.82;;;25.50;99.90;;;;;;5047755;28;20044;-74
2022/08/15 12:00:57;;;;;;;14.60;12.20;;;25.50;99.90;;;;;;5073898;28;20060;-72
2022/08/15 12:03:25;;;;;;;12.50;11.10;;;25.40;99.90;;;;;;5068363;27;20051;-73
2022/08/15 12:06:16;;;;;;;13.15;11.82;;;25.30;99.90;;;;;;5069147;28;20073;-72
2022/08/15 12:08:44;;;;;;;14.00;11.93;;;25.10;99.90;;;;;;5065187;28;20166;-72
2022/08/15 12:11:13;;;;;;;13.43;11.85;;;25.10;99.90;;;;;;5069814;28;20039;-73
2022/08/15 12:13:58;;;;;;;13.23;11.88;;;24.90;99.90;;;;;;5067697;27;20145;-72
2022/08/15 12:16:34;;;;;;;14.45;11.13;;;25.00;99.90;;;;;;5058272;28;20111;-74
2022/08/15 12:19:29;;;;;;;13.30;10.68;;;25.00;99.90;;;;;;5067074;28;20043;-74
2022/08/15 12:22:00;;;;;;;14.50;11.30;;;25.20;99.90;;;;;;5047870;28;20143;-73
2022/08/15 12:24:31;;;;;;;15.00;11.07;;;25.10;99.90;;;;;;5066902;28;20055;-73
2022/08/15 12:27:01;;;;;;;12.85;10.70;;;25.10;99.90;;;;;;5057327;28;20113;-74
2022/08/15 12:29:33;;;;;;;16.58;11.40;;;25.10;99.90;;;;;;5071369;28;20051;-71
2022/08/15 12:32:02;;;;;;;14.27;11.82;;;25.00;99.90;;;;;;5071178;28;20077;-73
2022/08/15 12:34:33;;;;;;;13.18;11.52;;;24.80;99.90;;;;;;5072156;28;20506;-71
2022/08/15 12:37:02;;;;;;;12.32;11.02;;;24.80;99.90;;;;;;5053957;28;20071;-72
2022/08/15 12:39:27;;;;;;;13.02;10.90;;;24.70;99.90;;;;;;5071228;28;20046;-71
2022/08/15 12:41:54;;;;;;;12.90;10.40;;;24.60;99.90;;;;;;5071010;28;20048;-72
2022/08/15 12:44:27;;;;;;;13.65;11.30;;;24.70;99.90;;;;;;5071133;28;20094;-72
2022/08/15 12:46:55;;;;;;;12.35;10.93;;;24.50;99.90;;;;;;5056988;28;20075;-71
2022/08/15 12:49:21;;;;;;;13.45;10.70;;;24.50;99.90;;;;;;5071162;28;20044;-78
2022/08/15 12:51:46;;;;;;;13.93;11.30;;;24.60;99.90;;;;;;5069400;28;20238;-73
2022/08/15 12:54:13;;;;;;;12.57;11.38;;;24.70;99.90;;;;;;5076369;28;20475;-72
2022/08/15 12:56:40;;;;;;;13.50;12.10;;;24.60;99.90;;;;;;5059830;28;21439;-72
2022/08/15 12:59:05;;;;;;;12.80;11.50;;;24.60;99.90;;;;;;5069595;28;20198;-72
2022/08/15 13:01:33;;;;;;;15.40;10.55;;;24.60;99.90;;;;;;5058481;28;20694;-72
2022/08/15 13:04:04;;;;;;;13.07;11.77;;;24.60;99.90;;;;;;5072372;28;20104;-71
2022/08/15 13:06:42;;;;;;;15.20;12.68;;;24.70;99.90;;;;;;5056158;28;20048;-72